sensor_id;sensor_type;location;lat;lon;timestamp;temperature;humidity
28374;DHT22;15616;40.148;-102.718;2023-05-16T00:00:04;21.50;54.30
28374;DHT22;15616;40.148;-102.718;2023-05-16T00:02:34;21.60;54.30
28374;DHT22;15616;40.148;-102.718;2023-05-16T00:05:00;21.60;54.30
28374;DHT22;15616;40.148;-102.718;2023-05-16T00:07:26;21.60;54.30
28374;DHT22;15616;40.148;-102.718;2023-05-16T00:09:52;21.60;54.30
28374;DHT22;15616;40.148;-102.718;2023-05-16T00:12:18;21.60;54.30
28374;DHT22;15616;40.148;-102.718;2023-05-16T00:14:44;21.60;54.30
28374;DHT22;15616;40.148;-102.718;2023-05-16T00:17:09;21.50;54.20
28374;DHT22;15616;40.148;-102.718;2023-05-16T00:19:36;21.50;54.30
28374;DHT22;15616;40.148;-102.718;2023-05-16T00:22:04;21.50;54.20
28374;DHT22;15616;40.148;-102.718;2023-05-16T00:24:29;21.50;54.20
28374;DHT22;15616;40.148;-102.718;2023-05-16T00:26:55;21.60;54.30
28374;DHT22;15616;40.148;-102.718;2023-05-16T00:29:21;21.60;54.30
28374;DHT22;15616;40.148;-102.718;2023-05-16T00:31:48;21.60;54.30
28374;DHT22;15616;40.148;-102.718;2023-05-16T00:34:15;21.50;54.20
28374;DHT22;15616;40.148;-102.718;2023-05-16T00:36:40;21.50;54.20
28374;DHT22;15616;40.148;-102.718;2023-05-16T00:39:06;21.50;54.20
28374;DHT22;15616;40.148;-102.718;2023-05-16T00:41:32;21.50;54.20
28374;DHT22;15616;40.148;-102.718;2023-05-16T00:43:58;21.50;54.30
28374;DHT22;15616;40.148;-102.718;2023-05-16T00:46:24;21.50;54.20
28374;DHT22;15616;40.148;-102.718;2023-05-16T00:48:50;21.50;54.20
28374;DHT22;15616;40.148;-102.718;2023-05-16T00:51:16;21.50;54.30
28374;DHT22;15616;40.148;-102.718;2023-05-16T00:53:42;21.50;54.20
28374;DHT22;15616;40.148;-102.718;2023-05-16T00:56:08;21.50;54.30
28374;DHT22;15616;40.148;-102.718;2023-05-16T00:58:33;21.50;54.20
28374;DHT22;15616;40.148;-102.718;2023-05-16T01:01:00;21.50;54.20
28374;DHT22;15616;40.148;-102.718;2023-05-16T01:03:28;21.50;54.20
28374;DHT22;15616;40.148;-102.718;2023-05-16T01:05:54;21.50;54.20
28374;DHT22;15616;40.148;-102.718;2023-05-16T01:08:20;21.50;54.20
28374;DHT22;15616;40.148;-102.718;2023-05-16T01:10:49;21.50;54.20
28374;DHT22;15616;40.148;-102.718;2023-05-16T01:13:21;21.50;54.30
28374;DHT22;15616;40.148;-102.718;2023-05-16T01:21:20;21.50;54.20
28374;DHT22;15616;40.148;-102.718;2023-05-16T01:23:59;21.50;54.20
28374;DHT22;15616;40.148;-102.718;2023-05-16T01:26:28;21.50;54.20
28374;DHT22;15616;40.148;-102.718;2023-05-16T01:28:54;21.50;54.20
28374;DHT22;15616;40.148;-102.718;2023-05-16T01:31:20;21.50;54.30
28374;DHT22;15616;40.148;-102.718;2023-05-16T01:33:46;21.50;54.20
28374;DHT22;15616;40.148;-102.718;2023-05-16T01:36:16;21.50;54.30
28374;DHT22;15616;40.148;-102.718;2023-05-16T01:43:57;21.50;54.30
28374;DHT22;15616;40.148;-102.718;2023-05-16T01:46:24;21.50;54.30
28374;DHT22;15616;40.148;-102.718;2023-05-16T01:51:16;21.50;54.30
28374;DHT22;15616;40.148;-102.718;2023-05-16T01:53:43;21.40;54.20
28374;DHT22;15616;40.148;-102.718;2023-05-16T01:56:10;21.40;54.20
28374;DHT22;15616;40.148;-102.718;2023-05-16T01:58:39;21.40;54.30
28374;DHT22;15616;40.148;-102.718;2023-05-16T02:01:06;21.40;54.20
28374;DHT22;15616;40.148;-102.718;2023-05-16T02:03:32;21.40;54.20
28374;DHT22;15616;40.148;-102.718;2023-05-16T02:05:58;21.40;54.30
28374;DHT22;15616;40.148;-102.718;2023-05-16T02:08:24;21.40;54.30
28374;DHT22;15616;40.148;-102.718;2023-05-16T02:10:53;21.40;54.30
28374;DHT22;15616;40.148;-102.718;2023-05-16T02:13:19;21.40;54.30
28374;DHT22;15616;40.148;-102.718;2023-05-16T02:15:44;21.40;54.30
28374;DHT22;15616;40.148;-102.718;2023-05-16T02:18:10;21.40;54.30
28374;DHT22;15616;40.148;-102.718;2023-05-16T02:20:36;21.40;54.30
28374;DHT22;15616;40.148;-102.718;2023-05-16T02:23:02;21.40;54.30
28374;DHT22;15616;40.148;-102.718;2023-05-16T02:25:28;21.40;54.30
28374;DHT22;15616;40.148;-102.718;2023-05-16T02:27:54;21.40;54.30
28374;DHT22;15616;40.148;-102.718;2023-05-16T02:30:20;21.40;54.30
28374;DHT22;15616;40.148;-102.718;2023-05-16T02:32:46;21.40;54.30
28374;DHT22;15616;40.148;-102.718;2023-05-16T02:35:13;21.40;54.30
28374;DHT22;15616;40.148;-102.718;2023-05-16T02:37:39;21.40;54.30
28374;DHT22;15616;40.148;-102.718;2023-05-16T02:40:05;21.40;54.30
28374;DHT22;15616;40.148;-102.718;2023-05-16T02:42:32;21.40;54.30
28374;DHT22;15616;40.148;-102.718;2023-05-16T02:44:58;21.40;54.30
28374;DHT22;15616;40.148;-102.718;2023-05-16T02:47:23;21.40;54.30
28374;DHT22;15616;40.148;-102.718;2023-05-16T02:49:49;21.40;54.30
28374;DHT22;15616;40.148;-102.718;2023-05-16T02:52:19;21.40;54.30
28374;DHT22;15616;40.148;-102.718;2023-05-16T02:54:45;21.40;54.30
28374;DHT22;15616;40.148;-102.718;2023-05-16T02:57:11;21.40;54.30
28374;DHT22;15616;40.148;-102.718;2023-05-16T02:59:37;21.30;54.30
28374;DHT22;15616;40.148;-102.718;2023-05-16T03:02:02;21.30;54.30
28374;DHT22;15616;40.148;-102.718;2023-05-16T03:04:28;21.30;54.30
28374;DHT22;15616;40.148;-102.718;2023-05-16T03:06:54;21.40;54.30
28374;DHT22;15616;40.148;-102.718;2023-05-16T03:09:20;21.30;54.30
28374;DHT22;15616;40.148;-102.718;2023-05-16T03:11:46;21.40;54.30
28374;DHT22;15616;40.148;-102.718;2023-05-16T03:14:12;21.40;54.40
28374;DHT22;15616;40.148;-102.718;2023-05-16T03:16:38;21.30;54.30
28374;DHT22;15616;40.148;-102.718;2023-05-16T03:19:06;21.40;54.40
28374;DHT22;15616;40.148;-102.718;2023-05-16T03:21:31;21.30;54.30
28374;DHT22;15616;40.148;-102.718;2023-05-16T03:23:57;21.40;54.30
28374;DHT22;15616;40.148;-102.718;2023-05-16T03:26:26;21.30;54.30
28374;DHT22;15616;40.148;-102.718;2023-05-16T03:28:52;21.40;54.30
28374;DHT22;15616;40.148;-102.718;2023-05-16T03:31:17;21.40;54.30
28374;DHT22;15616;40.148;-102.718;2023-05-16T03:33:43;21.30;54.30
28374;DHT22;15616;40.148;-102.718;2023-05-16T03:36:09;21.40;54.30
28374;DHT22;15616;40.148;-102.718;2023-05-16T03:38:35;21.30;54.20
28374;DHT22;15616;40.148;-102.718;2023-05-16T03:41:01;21.40;54.30
28374;DHT22;15616;40.148;-102.718;2023-05-16T03:43:27;21.40;54.30
28374;DHT22;15616;40.148;-102.718;2023-05-16T03:45:53;21.30;54.30
28374;DHT22;15616;40.148;-102.718;2023-05-16T03:48:19;21.40;54.30
28374;DHT22;15616;40.148;-102.718;2023-05-16T03:50:44;21.30;54.20
28374;DHT22;15616;40.148;-102.718;2023-05-16T03:53:10;21.30;54.30
28374;DHT22;15616;40.148;-102.718;2023-05-16T03:55:36;21.40;54.30
28374;DHT22;15616;40.148;-102.718;2023-05-16T03:58:02;21.40;54.30
28374;DHT22;15616;40.148;-102.718;2023-05-16T04:00:27;21.40;54.30
28374;DHT22;15616;40.148;-102.718;2023-05-16T04:02:53;21.40;54.30
28374;DHT22;15616;40.148;-102.718;2023-05-16T04:05:19;21.40;54.30
28374;DHT22;15616;40.148;-102.718;2023-05-16T04:07:45;21.30;54.30
28374;DHT22;15616;40.148;-102.718;2023-05-16T04:10:11;21.30;54.20
28374;DHT22;15616;40.148;-102.718;2023-05-16T04:12:37;21.30;54.30
28374;DHT22;15616;40.148;-102.718;2023-05-16T04:15:03;21.30;54.30
28374;DHT22;15616;40.148;-102.718;2023-05-16T04:17:29;21.30;54.30
28374;DHT22;15616;40.148;-102.718;2023-05-16T04:19:54;21.20;54.30
28374;DHT22;15616;40.148;-102.718;2023-05-16T04:22:21;21.20;55.00
28374;DHT22;15616;40.148;-102.718;2023-05-16T04:24:47;21.20;54.30
28374;DHT22;15616;40.148;-102.718;2023-05-16T04:27:13;21.20;54.30
28374;DHT22;15616;40.148;-102.718;2023-05-16T04:29:39;21.20;54.30
28374;DHT22;15616;40.148;-102.718;2023-05-16T04:32:05;21.20;54.40
28374;DHT22;15616;40.148;-102.718;2023-05-16T04:34:32;21.20;54.40
28374;DHT22;15616;40.148;-102.718;2023-05-16T04:36:58;21.20;54.40
28374;DHT22;15616;40.148;-102.718;2023-05-16T04:39:24;21.20;54.40
28374;DHT22;15616;40.148;-102.718;2023-05-16T04:41:50;21.20;54.40
28374;DHT22;15616;40.148;-102.718;2023-05-16T04:44:16;21.20;54.40
28374;DHT22;15616;40.148;-102.718;2023-05-16T04:46:42;21.20;54.50
28374;DHT22;15616;40.148;-102.718;2023-05-16T04:49:07;21.20;54.40
28374;DHT22;15616;40.148;-102.718;2023-05-16T04:51:33;21.20;54.40
28374;DHT22;15616;40.148;-102.718;2023-05-16T04:53:59;21.20;54.40
28374;DHT22;15616;40.148;-102.718;2023-05-16T04:56:25;21.20;54.40
28374;DHT22;15616;40.148;-102.718;2023-05-16T04:58:53;21.20;54.40
28374;DHT22;15616;40.148;-102.718;2023-05-16T05:01:19;21.20;54.30
28374;DHT22;15616;40.148;-102.718;2023-05-16T05:03:45;21.20;54.30
28374;DHT22;15616;40.148;-102.718;2023-05-16T05:06:10;21.20;54.30
28374;DHT22;15616;40.148;-102.718;2023-05-16T05:08:36;21.20;54.20
28374;DHT22;15616;40.148;-102.718;2023-05-16T05:11:02;21.20;54.20
28374;DHT22;15616;40.148;-102.718;2023-05-16T05:13:28;21.20;54.10
28374;DHT22;15616;40.148;-102.718;2023-05-16T05:15:53;21.20;54.10
28374;DHT22;15616;40.148;-102.718;2023-05-16T05:18:19;21.10;54.10
28374;DHT22;15616;40.148;-102.718;2023-05-16T05:20:45;21.10;54.00
28374;DHT22;15616;40.148;-102.718;2023-05-16T05:23:11;21.10;54.00
28374;DHT22;15616;40.148;-102.718;2023-05-16T05:25:37;21.10;54.00
28374;DHT22;15616;40.148;-102.718;2023-05-16T05:28:03;21.10;54.00
28374;DHT22;15616;40.148;-102.718;2023-05-16T05:30:29;21.10;54.00
28374;DHT22;15616;40.148;-102.718;2023-05-16T05:32:54;21.10;53.90
28374;DHT22;15616;40.148;-102.718;2023-05-16T05:35:20;21.10;53.90
28374;DHT22;15616;40.148;-102.718;2023-05-16T05:37:46;21.10;53.80
28374;DHT22;15616;40.148;-102.718;2023-05-16T05:40:13;21.20;53.80
28374;DHT22;15616;40.148;-102.718;2023-05-16T05:42:38;21.20;53.70
28374;DHT22;15616;40.148;-102.718;2023-05-16T05:45:04;21.20;53.60
28374;DHT22;15616;40.148;-102.718;2023-05-16T05:47:32;21.30;53.60
28374;DHT22;15616;40.148;-102.718;2023-05-16T05:49:57;21.20;53.50
28374;DHT22;15616;40.148;-102.718;2023-05-16T05:52:23;21.30;53.50
28374;DHT22;15616;40.148;-102.718;2023-05-16T05:54:49;21.30;53.40
28374;DHT22;15616;40.148;-102.718;2023-05-16T05:57:15;21.30;53.40
28374;DHT22;15616;40.148;-102.718;2023-05-16T05:59:41;21.30;53.40
28374;DHT22;15616;40.148;-102.718;2023-05-16T06:02:06;21.30;53.30
28374;DHT22;15616;40.148;-102.718;2023-05-16T06:04:32;21.30;53.20
28374;DHT22;15616;40.148;-102.718;2023-05-16T06:06:58;21.30;53.10
28374;DHT22;15616;40.148;-102.718;2023-05-16T06:09:24;21.40;53.10
28374;DHT22;15616;40.148;-102.718;2023-05-16T06:11:49;21.30;53.00
28374;DHT22;15616;40.148;-102.718;2023-05-16T06:14:15;21.40;52.90
28374;DHT22;15616;40.148;-102.718;2023-05-16T06:16:41;21.40;52.80
28374;DHT22;15616;40.148;-102.718;2023-05-16T06:19:08;21.40;52.80
28374;DHT22;15616;40.148;-102.718;2023-05-16T06:21:33;21.40;52.90
28374;DHT22;15616;40.148;-102.718;2023-05-16T06:23:59;21.40;52.90
28374;DHT22;15616;40.148;-102.718;2023-05-16T06:26:25;21.30;53.00
28374;DHT22;15616;40.148;-102.718;2023-05-16T06:28:51;21.30;53.00
28374;DHT22;15616;40.148;-102.718;2023-05-16T06:31:17;21.30;52.90
28374;DHT22;15616;40.148;-102.718;2023-05-16T06:33:42;21.30;53.00
28374;DHT22;15616;40.148;-102.718;2023-05-16T06:36:08;21.30;53.10
28374;DHT22;15616;40.148;-102.718;2023-05-16T06:38:34;21.30;53.10
28374;DHT22;15616;40.148;-102.718;2023-05-16T06:41:00;21.30;53.10
28374;DHT22;15616;40.148;-102.718;2023-05-16T06:43:25;21.30;53.10
28374;DHT22;15616;40.148;-102.718;2023-05-16T06:45:51;21.30;53.20
28374;DHT22;15616;40.148;-102.718;2023-05-16T06:48:17;21.30;53.20
28374;DHT22;15616;40.148;-102.718;2023-05-16T06:50:49;21.30;53.20
28374;DHT22;15616;40.148;-102.718;2023-05-16T06:53:18;21.30;53.20
28374;DHT22;15616;40.148;-102.718;2023-05-16T06:55:44;21.30;53.20
28374;DHT22;15616;40.148;-102.718;2023-05-16T06:58:10;21.30;53.20
28374;DHT22;15616;40.148;-102.718;2023-05-16T07:00:36;21.30;53.20
28374;DHT22;15616;40.148;-102.718;2023-05-16T07:03:01;21.30;53.30
28374;DHT22;15616;40.148;-102.718;2023-05-16T07:05:28;21.30;53.30
28374;DHT22;15616;40.148;-102.718;2023-05-16T07:07:54;21.20;53.30
28374;DHT22;15616;40.148;-102.718;2023-05-16T07:10:20;21.30;53.40
28374;DHT22;15616;40.148;-102.718;2023-05-16T07:12:46;21.30;53.30
28374;DHT22;15616;40.148;-102.718;2023-05-16T07:15:12;21.30;53.30
28374;DHT22;15616;40.148;-102.718;2023-05-16T07:17:38;21.40;53.30
28374;DHT22;15616;40.148;-102.718;2023-05-16T07:20:04;21.30;53.20
28374;DHT22;15616;40.148;-102.718;2023-05-16T07:22:30;21.30;53.20
28374;DHT22;15616;40.148;-102.718;2023-05-16T07:24:56;21.40;53.10
28374;DHT22;15616;40.148;-102.718;2023-05-16T07:27:25;21.40;53.10
28374;DHT22;15616;40.148;-102.718;2023-05-16T07:29:51;21.30;53.00
28374;DHT22;15616;40.148;-102.718;2023-05-16T07:32:17;21.40;53.00
28374;DHT22;15616;40.148;-102.718;2023-05-16T07:34:43;21.40;53.00
28374;DHT22;15616;40.148;-102.718;2023-05-16T07:37:08;21.40;53.00
28374;DHT22;15616;40.148;-102.718;2023-05-16T07:39:39;21.40;52.90
28374;DHT22;15616;40.148;-102.718;2023-05-16T07:42:06;21.40;52.80
28374;DHT22;15616;40.148;-102.718;2023-05-16T07:44:32;21.50;52.70
28374;DHT22;15616;40.148;-102.718;2023-05-16T07:46:58;21.50;52.80
28374;DHT22;15616;40.148;-102.718;2023-05-16T07:49:24;21.50;52.80
28374;DHT22;15616;40.148;-102.718;2023-05-16T07:51:50;21.40;52.90
28374;DHT22;15616;40.148;-102.718;2023-05-16T07:54:16;21.40;52.90
28374;DHT22;15616;40.148;-102.718;2023-05-16T07:56:42;21.40;52.90
28374;DHT22;15616;40.148;-102.718;2023-05-16T07:59:08;21.40;53.00
28374;DHT22;15616;40.148;-102.718;2023-05-16T08:01:34;21.40;53.00
28374;DHT22;15616;40.148;-102.718;2023-05-16T08:04:00;21.40;53.00
28374;DHT22;15616;40.148;-102.718;2023-05-16T08:06:26;21.40;52.90
28374;DHT22;15616;40.148;-102.718;2023-05-16T08:08:51;21.40;52.80
28374;DHT22;15616;40.148;-102.718;2023-05-16T08:11:18;21.40;52.70
28374;DHT22;15616;40.148;-102.718;2023-05-16T08:13:44;21.50;53.30
28374;DHT22;15616;40.148;-102.718;2023-05-16T08:16:09;21.50;52.50
28374;DHT22;15616;40.148;-102.718;2023-05-16T08:18:36;21.50;52.40
28374;DHT22;15616;40.148;-102.718;2023-05-16T08:21:02;21.50;52.30
28374;DHT22;15616;40.148;-102.718;2023-05-16T08:23:27;21.50;52.30
28374;DHT22;15616;40.148;-102.718;2023-05-16T08:25:53;21.50;52.40
28374;DHT22;15616;40.148;-102.718;2023-05-16T08:28:19;21.50;52.40
28374;DHT22;15616;40.148;-102.718;2023-05-16T08:30:45;21.50;52.40
28374;DHT22;15616;40.148;-102.718;2023-05-16T08:33:10;21.50;52.50
28374;DHT22;15616;40.148;-102.718;2023-05-16T08:35:36;21.50;52.50
28374;DHT22;15616;40.148;-102.718;2023-05-16T08:38:02;21.50;52.50
28374;DHT22;15616;40.148;-102.718;2023-05-16T08:40:28;21.50;52.50
28374;DHT22;15616;40.148;-102.718;2023-05-16T08:42:53;21.50;52.30
28374;DHT22;15616;40.148;-102.718;2023-05-16T08:45:20;21.50;52.20
28374;DHT22;15616;40.148;-102.718;2023-05-16T08:47:47;21.50;52.20
28374;DHT22;15616;40.148;-102.718;2023-05-16T08:50:14;21.50;52.30
28374;DHT22;15616;40.148;-102.718;2023-05-16T08:52:40;21.50;52.40
28374;DHT22;15616;40.148;-102.718;2023-05-16T08:55:06;21.50;52.40
28374;DHT22;15616;40.148;-102.718;2023-05-16T08:57:34;21.50;52.50
28374;DHT22;15616;40.148;-102.718;2023-05-16T09:00:00;21.50;52.50
28374;DHT22;15616;40.148;-102.718;2023-05-16T09:02:26;21.50;52.50
28374;DHT22;15616;40.148;-102.718;2023-05-16T09:04:53;21.60;52.60
28374;DHT22;15616;40.148;-102.718;2023-05-16T09:07:19;21.50;52.60
28374;DHT22;15616;40.148;-102.718;2023-05-16T09:09:45;21.50;52.60
28374;DHT22;15616;40.148;-102.718;2023-05-16T09:12:11;21.50;52.70
28374;DHT22;15616;40.148;-102.718;2023-05-16T09:14:36;21.50;52.70
28374;DHT22;15616;40.148;-102.718;2023-05-16T09:17:03;21.50;52.70
28374;DHT22;15616;40.148;-102.718;2023-05-16T09:19:36;21.50;52.70
28374;DHT22;15616;40.148;-102.718;2023-05-16T09:22:02;21.60;52.80
28374;DHT22;15616;40.148;-102.718;2023-05-16T09:24:28;21.60;52.80
28374;DHT22;15616;40.148;-102.718;2023-05-16T09:26:54;21.60;52.80
28374;DHT22;15616;40.148;-102.718;2023-05-16T09:29:20;21.60;52.70
28374;DHT22;15616;40.148;-102.718;2023-05-16T09:31:47;21.60;52.80
28374;DHT22;15616;40.148;-102.718;2023-05-16T09:34:13;21.60;52.80
28374;DHT22;15616;40.148;-102.718;2023-05-16T09:36:39;21.60;52.80
28374;DHT22;15616;40.148;-102.718;2023-05-16T09:39:05;21.70;52.80
28374;DHT22;15616;40.148;-102.718;2023-05-16T09:41:34;21.70;52.80
28374;DHT22;15616;40.148;-102.718;2023-05-16T09:44:04;21.70;52.80
28374;DHT22;15616;40.148;-102.718;2023-05-16T09:46:32;21.70;52.70
28374;DHT22;15616;40.148;-102.718;2023-05-16T09:48:58;21.70;52.70
28374;DHT22;15616;40.148;-102.718;2023-05-16T09:51:24;21.70;52.70
28374;DHT22;15616;40.148;-102.718;2023-05-16T09:53:50;21.70;52.60
28374;DHT22;15616;40.148;-102.718;2023-05-16T09:56:16;21.70;52.50
28374;DHT22;15616;40.148;-102.718;2023-05-16T09:58:42;21.70;52.30
28374;DHT22;15616;40.148;-102.718;2023-05-16T10:01:09;21.70;52.20
28374;DHT22;15616;40.148;-102.718;2023-05-16T10:03:36;21.70;52.20
28374;DHT22;15616;40.148;-102.718;2023-05-16T10:06:02;21.70;52.20
28374;DHT22;15616;40.148;-102.718;2023-05-16T10:08:29;21.80;52.10
28374;DHT22;15616;40.148;-102.718;2023-05-16T10:10:56;21.80;52.20
28374;DHT22;15616;40.148;-102.718;2023-05-16T10:13:23;21.70;52.10
28374;DHT22;15616;40.148;-102.718;2023-05-16T10:15:49;21.80;52.10
28374;DHT22;15616;40.148;-102.718;2023-05-16T10:18:16;21.80;52.00
28374;DHT22;15616;40.148;-102.718;2023-05-16T10:20:43;21.80;51.90
28374;DHT22;15616;40.148;-102.718;2023-05-16T10:23:10;21.80;51.80
28374;DHT22;15616;40.148;-102.718;2023-05-16T10:25:40;21.80;51.70
28374;DHT22;15616;40.148;-102.718;2023-05-16T10:28:07;21.80;51.70
28374;DHT22;15616;40.148;-102.718;2023-05-16T10:30:33;21.80;51.60
28374;DHT22;15616;40.148;-102.718;2023-05-16T10:33:00;21.80;51.50
28374;DHT22;15616;40.148;-102.718;2023-05-16T10:35:26;21.80;51.50
28374;DHT22;15616;40.148;-102.718;2023-05-16T10:37:52;21.80;51.50
28374;DHT22;15616;40.148;-102.718;2023-05-16T10:40:18;21.90;51.50
28374;DHT22;15616;40.148;-102.718;2023-05-16T10:42:53;21.90;51.40
28374;DHT22;15616;40.148;-102.718;2023-05-16T10:45:20;21.90;51.30
28374;DHT22;15616;40.148;-102.718;2023-05-16T10:47:59;21.90;51.40
28374;DHT22;15616;40.148;-102.718;2023-05-16T10:53:10;21.90;51.40
28374;DHT22;15616;40.148;-102.718;2023-05-16T10:55:37;21.90;51.50
28374;DHT22;15616;40.148;-102.718;2023-05-16T10:58:03;21.90;51.50
28374;DHT22;15616;40.148;-102.718;2023-05-16T11:00:29;21.90;51.40
28374;DHT22;15616;40.148;-102.718;2023-05-16T11:03:03;21.90;51.40
28374;DHT22;15616;40.148;-102.718;2023-05-16T11:05:29;21.90;51.30
28374;DHT22;15616;40.148;-102.718;2023-05-16T11:08:06;21.90;51.30
28374;DHT22;15616;40.148;-102.718;2023-05-16T11:10:33;21.90;51.30
28374;DHT22;15616;40.148;-102.718;2023-05-16T11:13:02;21.90;51.30
28374;DHT22;15616;40.148;-102.718;2023-05-16T11:15:31;22.00;51.40
28374;DHT22;15616;40.148;-102.718;2023-05-16T11:18:14;22.00;51.30
28374;DHT22;15616;40.148;-102.718;2023-05-16T11:20:40;21.90;51.30
28374;DHT22;15616;40.148;-102.718;2023-05-16T11:25:41;21.90;51.10
28374;DHT22;15616;40.148;-102.718;2023-05-16T11:28:08;22.00;51.10
28374;DHT22;15616;40.148;-102.718;2023-05-16T11:30:35;22.00;51.00
28374;DHT22;15616;40.148;-102.718;2023-05-16T11:33:01;22.00;50.80
28374;DHT22;15616;40.148;-102.718;2023-05-16T11:35:27;22.00;50.70
28374;DHT22;15616;40.148;-102.718;2023-05-16T11:37:53;22.00;50.60
28374;DHT22;15616;40.148;-102.718;2023-05-16T11:40:19;22.10;50.60
28374;DHT22;15616;40.148;-102.718;2023-05-16T11:42:45;22.10;50.40
28374;DHT22;15616;40.148;-102.718;2023-05-16T11:45:15;22.10;50.40
28374;DHT22;15616;40.148;-102.718;2023-05-16T11:47:41;22.10;50.40
28374;DHT22;15616;40.148;-102.718;2023-05-16T11:50:15;22.10;50.30
28374;DHT22;15616;40.148;-102.718;2023-05-16T11:52:42;22.10;50.30
28374;DHT22;15616;40.148;-102.718;2023-05-16T11:55:08;22.10;50.30
28374;DHT22;15616;40.148;-102.718;2023-05-16T11:57:37;22.10;50.30
28374;DHT22;15616;40.148;-102.718;2023-05-16T12:00:04;22.10;50.10
28374;DHT22;15616;40.148;-102.718;2023-05-16T12:02:32;22.20;50.00
28374;DHT22;15616;40.148;-102.718;2023-05-16T12:04:58;22.20;50.00
28374;DHT22;15616;40.148;-102.718;2023-05-16T12:07:27;22.20;49.90
28374;DHT22;15616;40.148;-102.718;2023-05-16T12:09:53;22.20;49.90
28374;DHT22;15616;40.148;-102.718;2023-05-16T12:12:19;22.20;49.90
28374;DHT22;15616;40.148;-102.718;2023-05-16T12:14:45;22.20;49.80
28374;DHT22;15616;40.148;-102.718;2023-05-16T12:17:11;22.20;49.90
28374;DHT22;15616;40.148;-102.718;2023-05-16T12:19:37;22.10;49.90
28374;DHT22;15616;40.148;-102.718;2023-05-16T12:22:03;22.10;49.90
28374;DHT22;15616;40.148;-102.718;2023-05-16T12:24:29;22.10;49.90
28374;DHT22;15616;40.148;-102.718;2023-05-16T12:26:55;22.10;49.90
28374;DHT22;15616;40.148;-102.718;2023-05-16T12:29:21;22.20;49.90
28374;DHT22;15616;40.148;-102.718;2023-05-16T12:31:51;22.20;49.90
28374;DHT22;15616;40.148;-102.718;2023-05-16T12:34:17;22.20;49.80
28374;DHT22;15616;40.148;-102.718;2023-05-16T12:36:45;22.20;49.70
28374;DHT22;15616;40.148;-102.718;2023-05-16T12:39:15;22.10;49.70
28374;DHT22;15616;40.148;-102.718;2023-05-16T12:41:42;22.10;49.80
28374;DHT22;15616;40.148;-102.718;2023-05-16T12:44:15;22.20;49.70
28374;DHT22;15616;40.148;-102.718;2023-05-16T12:46:44;22.20;49.50
28374;DHT22;15616;40.148;-102.718;2023-05-16T12:49:11;22.20;49.50
28374;DHT22;15616;40.148;-102.718;2023-05-16T12:51:37;22.20;49.50
28374;DHT22;15616;40.148;-102.718;2023-05-16T12:54:07;22.20;49.40
28374;DHT22;15616;40.148;-102.718;2023-05-16T12:56:33;22.20;49.40
28374;DHT22;15616;40.148;-102.718;2023-05-16T12:58:59;22.20;49.40
28374;DHT22;15616;40.148;-102.718;2023-05-16T13:01:25;22.20;49.40
28374;DHT22;15616;40.148;-102.718;2023-05-16T13:03:50;22.20;49.50
28374;DHT22;15616;40.148;-102.718;2023-05-16T13:06:16;22.20;49.40
28374;DHT22;15616;40.148;-102.718;2023-05-16T13:08:42;22.20;49.30
28374;DHT22;15616;40.148;-102.718;2023-05-16T13:11:08;22.20;49.30
28374;DHT22;15616;40.148;-102.718;2023-05-16T13:13:34;22.20;49.50
28374;DHT22;15616;40.148;-102.718;2023-05-16T13:16:00;22.20;49.40
28374;DHT22;15616;40.148;-102.718;2023-05-16T13:18:25;22.20;49.40
28374;DHT22;15616;40.148;-102.718;2023-05-16T13:20:51;22.20;49.30
28374;DHT22;15616;40.148;-102.718;2023-05-16T13:23:17;22.20;49.40
28374;DHT22;15616;40.148;-102.718;2023-05-16T13:25:43;22.20;49.40
28374;DHT22;15616;40.148;-102.718;2023-05-16T13:28:09;22.20;49.20
28374;DHT22;15616;40.148;-102.718;2023-05-16T13:30:35;22.20;49.20
28374;DHT22;15616;40.148;-102.718;2023-05-16T13:33:01;22.20;49.10
28374;DHT22;15616;40.148;-102.718;2023-05-16T13:35:27;22.20;49.10
28374;DHT22;15616;40.148;-102.718;2023-05-16T13:37:52;22.30;49.30
28374;DHT22;15616;40.148;-102.718;2023-05-16T13:40:18;22.30;49.20
28374;DHT22;15616;40.148;-102.718;2023-05-16T13:42:44;22.30;49.20
28374;DHT22;15616;40.148;-102.718;2023-05-16T13:45:10;22.30;49.20
28374;DHT22;15616;40.148;-102.718;2023-05-16T13:47:37;22.30;49.10
28374;DHT22;15616;40.148;-102.718;2023-05-16T13:50:03;22.30;49.10
28374;DHT22;15616;40.148;-102.718;2023-05-16T13:52:30;22.30;49.00
28374;DHT22;15616;40.148;-102.718;2023-05-16T13:54:56;22.30;48.90
28374;DHT22;15616;40.148;-102.718;2023-05-16T13:57:22;22.30;48.90
28374;DHT22;15616;40.148;-102.718;2023-05-16T13:59:48;22.30;48.90
28374;DHT22;15616;40.148;-102.718;2023-05-16T14:02:13;22.30;48.80
28374;DHT22;15616;40.148;-102.718;2023-05-16T14:04:39;22.30;48.70
28374;DHT22;15616;40.148;-102.718;2023-05-16T14:07:05;22.30;48.70
28374;DHT22;15616;40.148;-102.718;2023-05-16T14:09:31;22.30;48.60
28374;DHT22;15616;40.148;-102.718;2023-05-16T14:11:59;22.40;48.40
28374;DHT22;15616;40.148;-102.718;2023-05-16T14:14:27;22.40;48.40
28374;DHT22;15616;40.148;-102.718;2023-05-16T14:16:52;22.40;48.40
28374;DHT22;15616;40.148;-102.718;2023-05-16T14:19:18;22.40;48.30
28374;DHT22;15616;40.148;-102.718;2023-05-16T14:21:44;22.40;48.30
28374;DHT22;15616;40.148;-102.718;2023-05-16T14:24:09;22.40;48.30
28374;DHT22;15616;40.148;-102.718;2023-05-16T14:26:36;22.40;48.30
28374;DHT22;15616;40.148;-102.718;2023-05-16T14:29:02;22.40;48.20
28374;DHT22;15616;40.148;-102.718;2023-05-16T14:31:28;22.40;48.20
28374;DHT22;15616;40.148;-102.718;2023-05-16T14:33:53;22.40;48.20
28374;DHT22;15616;40.148;-102.718;2023-05-16T14:36:19;22.40;48.20
28374;DHT22;15616;40.148;-102.718;2023-05-16T14:38:45;22.50;48.10
28374;DHT22;15616;40.148;-102.718;2023-05-16T14:41:11;22.50;48.00
28374;DHT22;15616;40.148;-102.718;2023-05-16T14:43:36;22.50;48.00
28374;DHT22;15616;40.148;-102.718;2023-05-16T14:46:02;22.50;48.00
28374;DHT22;15616;40.148;-102.718;2023-05-16T14:48:28;22.50;48.00
28374;DHT22;15616;40.148;-102.718;2023-05-16T14:50:54;22.50;48.20
28374;DHT22;15616;40.148;-102.718;2023-05-16T14:53:20;22.50;48.20
28374;DHT22;15616;40.148;-102.718;2023-05-16T14:55:46;22.50;48.30
28374;DHT22;15616;40.148;-102.718;2023-05-16T14:58:11;22.50;48.20
28374;DHT22;15616;40.148;-102.718;2023-05-16T15:00:37;22.60;48.20